createdAt,value
2023-05-22T00:00:07.796Z,101125.25
2023-05-22T00:02:43.439Z,101132.16
2023-05-22T00:05:13.405Z,101122.56
2023-05-22T00:07:43.618Z,101122.97
2023-05-22T00:10:11.605Z,101119.22
2023-05-22T00:12:39.690Z,101125.50
2023-05-22T00:15:11.589Z,101122.16
2023-05-22T00:17:39.632Z,101124.25
2023-05-22T00:20:10.923Z,101123.03
2023-05-22T00:22:38.618Z,101129.09
2023-05-22T00:25:08.148Z,101121.38
2023-05-22T00:27:35.620Z,101131.38
2023-05-22T00:30:03.758Z,101130.56
2023-05-22T00:32:32.219Z,101125.97
2023-05-22T00:34:59.785Z,101121.81
2023-05-22T00:37:27.487Z,101126.81
2023-05-22T00:39:54.849Z,101116.78
2023-05-22T00:42:22.975Z,101125.78
2023-05-22T00:44:50.608Z,101121.38
2023-05-22T00:47:18.001Z,101127.84
2023-05-22T00:49:46.402Z,101122.63
2023-05-22T00:52:14.694Z,101134.34
2023-05-22T00:54:43.455Z,101124.94
2023-05-22T00:57:11.337Z,101113.88
2023-05-22T00:59:39.168Z,101112.63
2023-05-22T01:02:07.172Z,101110.09
2023-05-22T01:04:35.439Z,101108.88
2023-05-22T01:07:03.298Z,101096.97
2023-05-22T01:09:30.899Z,101095.09
2023-05-22T01:12:19.368Z,101092.16
2023-05-22T01:15:09.350Z,101089.66
2023-05-22T01:18:04.712Z,101085.91
2023-05-22T01:20:37.015Z,101082.56
2023-05-22T01:23:29.674Z,101091.34
2023-05-22T01:26:14.508Z,101104.91
2023-05-22T01:29:02.751Z,101107.19
2023-05-22T01:31:33.051Z,101104.91
2023-05-22T01:34:02.727Z,101101.34
2023-05-22T01:36:35.150Z,101099.00
2023-05-22T01:39:06.341Z,101103.88
2023-05-22T01:41:35.546Z,101108.03
2023-05-22T01:44:03.456Z,101108.44
2023-05-22T01:46:31.709Z,101117.03
2023-05-22T01:48:59.666Z,101128.47
2023-05-22T01:51:36.828Z,101134.75
2023-05-22T01:54:20.207Z,101127.44
2023-05-22T01:56:55.897Z,101124.72
2023-05-22T01:59:48.717Z,101127.66
2023-05-22T02:02:19.712Z,101132.41
2023-05-22T02:04:52.060Z,101128.47
2023-05-22T02:07:22.399Z,101137.22
2023-05-22T02:09:52.997Z,101136.41
2023-05-22T02:12:21.634Z,101134.72
2023-05-22T02:14:49.492Z,101131.59
2023-05-22T02:17:20.457Z,101124.03
2023-05-22T02:19:48.138Z,101112.56
2023-05-22T02:22:15.629Z,101105.47
2023-05-22T02:24:47.060Z,101112.59
2023-05-22T02:27:14.629Z,101108.00
2023-05-22T02:32:33.608Z,101107.50
2023-05-22T02:35:01.356Z,101106.94
2023-05-22T02:37:29.174Z,101098.81
2023-05-22T02:39:57.523Z,101107.34
2023-05-22T02:42:24.981Z,101104.63
2023-05-22T02:44:52.481Z,101109.66
2023-05-22T02:47:20.016Z,101107.56
2023-05-22T02:49:47.820Z,101112.78
2023-05-22T02:52:15.471Z,101120.28
2023-05-22T02:54:43.245Z,101125.91
2023-05-22T02:57:10.809Z,101132.41
2023-05-22T02:59:38.853Z,101137.66
2023-05-22T03:02:06.419Z,101131.38
2023-05-22T03:04:34.246Z,101135.13
2023-05-22T03:07:01.836Z,101136.41
2023-05-22T03:09:29.522Z,101133.69
2023-05-22T03:11:56.966Z,101130.53
2023-05-22T03:14:24.459Z,101123.88
2023-05-22T03:16:52.165Z,101128.91
2023-05-22T03:19:19.769Z,101129.50
2023-05-22T03:21:48.577Z,101124.72
2023-05-22T03:24:17.111Z,101131.00
2023-05-22T03:26:44.562Z,101130.78
2023-05-22T03:29:12.019Z,101130.59
2023-05-22T03:31:39.490Z,101126.38
2023-05-22T03:34:07.570Z,101128.50
2023-05-22T03:36:35.548Z,101125.97
2023-05-22T03:39:04.538Z,101127.66
2023-05-22T03:41:31.930Z,101131.00
2023-05-22T03:43:59.395Z,101130.97
2023-05-22T03:46:27.365Z,101128.50
2023-05-22T03:48:54.979Z,101120.78
2023-05-22T03:51:22.360Z,101119.31
2023-05-22T03:53:50.037Z,101122.25
2023-05-22T03:56:17.397Z,101116.78
2023-05-22T03:58:45.716Z,101119.72
2023-05-22T04:01:13.818Z,101114.50
2023-05-22T04:03:41.569Z,101117.00
2023-05-22T04:06:09.200Z,101117.22
2023-05-22T04:08:37.159Z,101117.63
2023-05-22T04:11:05.483Z,101118.88
2023-05-22T04:13:33.323Z,101115.13
2023-05-22T04:16:02.210Z,101114.28
2023-05-22T04:18:29.970Z,101111.38
2023-05-22T04:20:57.637Z,101111.38
2023-05-22T04:23:26.244Z,101115.13
2023-05-22T04:25:53.641Z,101109.91
2023-05-22T04:28:23.980Z,101117.22
2023-05-22T04:30:51.415Z,101113.47
2023-05-22T04:33:19.091Z,101114.50
2023-05-22T04:35:46.510Z,101108.03
2023-05-22T04:38:14.196Z,101113.00
2023-05-22T04:40:41.927Z,101110.09
2023-05-22T04:43:09.592Z,101109.25
2023-05-22T04:45:37.441Z,101112.16
2023-05-22T04:48:05.282Z,101112.59
2023-05-22T04:50:32.990Z,101113.00
2023-05-22T04:53:00.517Z,101114.84
2023-05-22T04:55:27.912Z,101121.75
2023-05-22T04:57:56.482Z,101114.84
2023-05-22T05:00:26.714Z,101121.13
2023-05-22T05:02:54.198Z,101126.34
2023-05-22T05:05:21.969Z,101130.94
2023-05-22T05:07:50.506Z,101127.59
2023-05-22T05:10:18.329Z,101126.75
2023-05-22T05:12:45.917Z,101121.75
2023-05-22T05:15:13.692Z,101121.75
2023-05-22T05:17:41.844Z,101124.25
2023-05-22T05:20:10.579Z,101126.31
2023-05-22T05:22:40.316Z,101122.59
2023-05-22T05:25:10.137Z,101132.56
2023-05-22T05:27:39.007Z,101124.63
2023-05-22T05:30:07.146Z,101130.94
2023-05-22T05:32:34.886Z,101134.25
2023-05-22T05:35:02.713Z,101138.84
2023-05-22T05:37:30.678Z,101144.28
2023-05-22T05:39:58.326Z,101135.50
2023-05-22T05:42:26.046Z,101135.91
2023-05-22T05:44:53.493Z,101138.00
2023-05-22T05:47:24.139Z,101136.69
2023-05-22T05:49:51.820Z,101133.16
2023-05-22T05:52:19.223Z,101129.63
2023-05-22T05:54:48.218Z,101127.72
2023-05-22T05:57:15.760Z,101124.50
2023-05-22T05:59:43.403Z,101128.88
2023-05-22T06:02:10.921Z,101124.84
2023-05-22T06:04:39.363Z,101129.59
2023-05-22T06:07:07.162Z,101121.81
2023-05-22T06:09:35.023Z,101118.47
2023-05-22T06:12:02.455Z,101122.16
2023-05-22T06:14:30.779Z,101119.19
2023-05-22T06:16:58.438Z,101121.66
2023-05-22T06:19:26.173Z,101121.59
2023-05-22T06:21:53.741Z,101120.66
2023-05-22T06:24:21.162Z,101120.31
2023-05-22T06:26:48.911Z,101125.59
2023-05-22T06:29:16.325Z,101120.09
2023-05-22T06:31:44.419Z,101122.84
2023-05-22T06:34:11.996Z,101123.91
2023-05-22T06:36:39.618Z,101126.06
2023-05-22T06:39:07.069Z,101129.69
2023-05-22T06:41:35.727Z,101130.28
2023-05-22T06:44:03.171Z,101131.19
2023-05-22T06:46:31.185Z,101132.91
2023-05-22T06:48:58.643Z,101125.28
2023-05-22T06:51:26.511Z,101131.50
2023-05-22T06:53:54.008Z,101125.97
2023-05-22T06:56:22.701Z,101134.69
2023-05-22T06:58:50.392Z,101133.97
2023-05-22T07:01:17.796Z,101118.13
2023-05-22T07:03:45.231Z,101126.56
2023-05-22T07:06:13.572Z,101128.50
2023-05-22T07:08:41.098Z,101140.19
2023-05-22T07:11:08.832Z,101131.44
2023-05-22T07:13:36.615Z,101135.38
2023-05-22T07:16:04.537Z,101136.38
2023-05-22T07:18:32.179Z,101125.19
2023-05-22T07:20:59.608Z,101126.22
2023-05-22T07:23:27.137Z,101118.63
2023-05-22T07:25:54.686Z,101125.09
2023-05-22T07:28:22.203Z,101116.69
2023-05-22T07:30:49.743Z,101119.69
2023-05-22T07:33:17.290Z,101115.94
2023-05-22T07:35:45.785Z,101118.53
2023-05-22T07:38:13.220Z,101122.47
2023-05-22T07:40:41.100Z,101123.41
2023-05-22T07:43:08.680Z,101121.78
2023-05-22T07:45:39.683Z,101110.84
2023-05-22T07:48:07.415Z,101116.16
2023-05-22T07:50:34.861Z,101111.91
2023-05-22T07:53:02.446Z,101111.91
2023-05-22T07:55:29.976Z,101122.63
2023-05-22T07:57:57.487Z,101119.28
2023-05-22T08:00:25.725Z,101118.34
2023-05-22T08:02:53.329Z,101124.28
2023-05-22T08:05:20.980Z,101117.03
2023-05-22T08:07:48.665Z,101120.94
2023-05-22T08:10:17.876Z,101120.69
2023-05-22T08:12:46.067Z,101112.75
2023-05-22T08:15:13.714Z,101118.81
2023-05-22T08:17:41.441Z,101118.19
2023-05-22T08:20:09.641Z,101121.94
2023-05-22T08:22:39.330Z,101122.53
2023-05-22T08:25:07.081Z,101115.41
2023-05-22T08:27:34.699Z,101125.25
2023-05-22T08:30:04.521Z,101120.00
2023-05-22T08:32:34.440Z,101120.06
2023-05-22T08:35:02.807Z,101115.28
2023-05-22T08:37:30.910Z,101120.44
2023-05-22T08:39:58.443Z,101116.88
2023-05-22T08:42:25.977Z,101121.09
2023-05-22T08:44:55.568Z,101117.06
2023-05-22T08:47:26.145Z,101118.72
2023-05-22T08:50:05.574Z,101117.41
2023-05-22T08:52:38.531Z,101115.41
2023-05-22T08:55:07.186Z,101124.78
2023-05-22T08:57:35.732Z,101117.41
2023-05-22T09:00:04.097Z,101115.69
2023-05-22T09:02:33.295Z,101117.41
2023-05-22T09:05:02.203Z,101127.09
2023-05-22T09:07:30.441Z,101117.31
2023-05-22T09:09:57.937Z,101117.28
2023-05-22T09:12:27.222Z,101112.38
2023-05-22T09:14:58.805Z,101111.59
2023-05-22T09:17:26.678Z,101115.47
2023-05-22T09:19:54.288Z,101108.63
2023-05-22T09:22:24.292Z,101109.50
2023-05-22T09:24:52.544Z,101105.59
2023-05-22T09:27:23.416Z,101102.09
2023-05-22T09:29:53.426Z,101106.75
2023-05-22T09:32:21.831Z,101097.69
2023-05-22T09:34:52.926Z,101090.50
2023-05-22T09:37:20.533Z,101093.38
2023-05-22T09:39:48.419Z,101090.16
2023-05-22T09:42:17.859Z,101088.88
2023-05-22T09:44:49.564Z,101080.31
2023-05-22T09:47:17.544Z,101083.16
2023-05-22T09:49:45.880Z,101076.69
2023-05-22T09:52:13.334Z,101072.59
2023-05-22T09:54:47.221Z,101075.38
2023-05-22T09:57:18.897Z,101065.44
2023-05-22T09:59:54.479Z,101063.19
2023-05-22T10:02:26.805Z,101063.91
2023-05-22T10:04:57.483Z,101060.75
2023-05-22T10:07:32.626Z,101050.06
2023-05-22T10:10:04.911Z,101051.72
2023-05-22T10:12:35.755Z,101055.88
2023-05-22T10:15:07.464Z,101048.34
2023-05-22T10:17:36.977Z,101043.63
2023-05-22T10:20:08.064Z,101037.72
2023-05-22T10:22:38.980Z,101032.25
2023-05-22T10:25:09.873Z,101033.16
2023-05-22T10:27:40.087Z,101029.72
2023-05-22T10:30:34.970Z,101039.41
2023-05-22T10:33:14.868Z,101033.97
2023-05-22T10:36:04.088Z,101023.50
2023-05-22T10:38:49.983Z,101023.53
2023-05-22T10:41:18.522Z,101018.59
2023-05-22T10:43:49.969Z,101020.81
2023-05-22T10:46:18.256Z,101016.91
2023-05-22T10:48:49.870Z,101011.41
2023-05-22T10:51:22.246Z,101010.31
2023-05-22T10:54:02.408Z,101005.94
2023-05-22T10:56:35.564Z,101013.34
2023-05-22T10:59:08.532Z,101010.31
2023-05-22T11:01:38.756Z,101016.38
2023-05-22T11:04:07.125Z,101005.09
2023-05-22T11:06:42.406Z,100993.81
2023-05-22T11:09:31.375Z,101000.38
2023-05-22T11:12:17.318Z,101008.06
2023-05-22T11:15:06.286Z,100996.72
2023-05-22T11:17:40.340Z,101006.22
2023-05-22T11:20:24.932Z,100996.06
2023-05-22T11:23:05.419Z,100997.69
2023-05-22T11:25:38.296Z,100992.97
2023-05-22T11:28:06.644Z,100996.81
2023-05-22T11:30:34.945Z,100986.34
2023-05-22T11:33:06.768Z,100985.88
2023-05-22T11:35:35.718Z,100989.16
2023-05-22T11:38:05.971Z,100993.88
2023-05-22T11:40:34.270Z,100984.75
2023-05-22T11:43:02.354Z,100981.75
2023-05-22T11:45:30.110Z,100978.88
2023-05-22T11:47:57.945Z,100968.75
2023-05-22T11:50:41.056Z,100962.38
2023-05-22T11:53:09.986Z,100969.38
2023-05-22T11:55:37.504Z,100970.50
2023-05-22T11:58:04.628Z,100961.25
2023-05-22T12:00:32.069Z,100965.16
2023-05-22T12:02:59.510Z,100960.75
2023-05-22T12:05:26.937Z,100956.63
2023-05-22T12:07:54.882Z,100962.13
2023-05-22T12:10:25.958Z,100957.97
2023-05-22T12:12:54.777Z,100956.31
2023-05-22T12:15:21.797Z,100957.53
2023-05-22T12:17:49.039Z,100955.34
2023-05-22T12:20:16.081Z,100953.44
2023-05-22T12:22:44.045Z,100947.88
2023-05-22T12:25:24.992Z,100956.38
2023-05-22T12:27:52.102Z,100953.00
2023-05-22T12:30:19.798Z,100952.41
2023-05-22T12:32:49.274Z,100945.22
2023-05-22T12:35:17.418Z,100951.22
2023-05-22T12:37:51.685Z,100944.81
2023-05-22T12:40:19.473Z,100953.88
2023-05-22T12:42:48.523Z,100946.94
2023-05-22T12:45:17.860Z,100948.03
2023-05-22T12:47:45.593Z,100947.97
2023-05-22T12:50:12.789Z,100949.31
2023-05-22T12:52:40.515Z,100943.47
2023-05-22T12:55:09.631Z,100941.91
2023-05-22T12:57:37.153Z,100947.59
2023-05-22T13:00:06.037Z,100951.03
2023-05-22T13:02:34.333Z,100949.50
2023-05-22T13:05:01.564Z,100947.56
2023-05-22T13:07:28.714Z,100947.59
2023-05-22T13:09:55.907Z,100951.13
2023-05-22T13:12:23.687Z,100950.25
2023-05-22T13:14:51.085Z,100949.47
2023-05-22T13:17:18.161Z,100947.41
2023-05-22T13:19:45.440Z,100957.22
2023-05-22T13:22:12.880Z,100951.28
2023-05-22T13:24:39.885Z,100956.00
2023-05-22T13:27:07.426Z,100954.44
2023-05-22T13:29:35.078Z,100943.56
2023-05-22T13:32:02.589Z,100955.34
2023-05-22T13:34:30.626Z,100947.22
2023-05-22T13:36:57.842Z,100944.47
2023-05-22T13:39:24.868Z,100939.56
2023-05-22T13:41:53.320Z,100942.66
2023-05-22T13:44:21.363Z,100935.50
2023-05-22T13:46:49.157Z,100938.16
2023-05-22T13:49:16.534Z,100940.81
2023-05-22T13:51:43.730Z,100944.13
2023-05-22T13:54:11.249Z,100940.00
2023-05-22T13:56:38.278Z,100939.69
2023-05-22T13:59:07.121Z,100944.47
2023-05-22T14:01:36.470Z,100943.63
2023-05-22T14:04:04.425Z,100944.13
2023-05-22T14:06:31.801Z,100943.97
2023-05-22T14:08:59.772Z,100940.81
2023-05-22T14:11:27.934Z,100942.81
2023-05-22T14:13:54.991Z,100936.59
2023-05-22T14:16:22.742Z,100939.66
2023-05-22T14:18:50.272Z,100941.41
2023-05-22T14:21:19.044Z,100939.16
2023-05-22T14:23:46.284Z,100931.59
2023-05-22T14:26:14.389Z,100933.44
2023-05-22T14:28:41.990Z,100935.22
2023-05-22T14:31:09.348Z,100924.22
2023-05-22T14:33:36.626Z,100931.97
2023-05-22T14:36:03.974Z,100926.50
2023-05-22T14:38:34.875Z,100917.72
2023-05-22T14:41:02.378Z,100924.00
2023-05-22T14:43:29.823Z,100923.75
2023-05-22T14:45:58.230Z,100926.06
2023-05-22T14:48:26.696Z,100923.13
2023-05-22T14:50:53.999Z,100922.19
2023-05-22T14:53:23.340Z,100922.25
2023-05-22T14:55:50.449Z,100928.00
2023-05-22T14:58:17.704Z,100926.00
2023-05-22T15:00:47.164Z,100927.16
2023-05-22T15:03:14.531Z,100917.97
2023-05-22T15:05:41.904Z,100915.00
2023-05-22T15:08:09.309Z,100918.56
2023-05-22T15:10:36.996Z,100918.06
2023-05-22T15:13:04.445Z,100910.13
2023-05-22T15:15:31.680Z,100914.84
2023-05-22T15:18:02.701Z,100903.38
2023-05-22T15:20:31.150Z,100913.88
2023-05-22T15:22:59.678Z,100914.91
2023-05-22T15:25:26.781Z,100917.69
2023-05-22T15:27:53.942Z,100910.25
2023-05-22T15:30:23.081Z,100905.59
2023-05-22T15:32:50.312Z,100911.13
2023-05-22T15:35:17.546Z,100910.13
2023-05-22T15:37:44.930Z,100918.34
2023-05-22T15:40:16.422Z,100914.50
2023-05-22T15:42:44.740Z,100912.53
2023-05-22T15:45:11.983Z,100919.34
2023-05-22T15:47:39.393Z,100914.41
2023-05-22T15:50:07.146Z,100923.41
2023-05-22T15:52:34.836Z,100919.81
2023-05-22T15:55:02.309Z,100923.56
2023-05-22T15:57:29.999Z,100919.38
2023-05-22T15:59:57.515Z,100926.13
2023-05-22T16:02:25.598Z,100927.78
2023-05-22T16:04:52.822Z,100937.09
2023-05-22T16:07:20.332Z,100936.78
2023-05-22T16:09:47.548Z,100940.28
2023-05-22T16:12:14.653Z,100935.81
2023-05-22T16:14:42.266Z,100935.16
2023-05-22T16:17:09.601Z,100940.81
2023-05-22T16:19:36.780Z,100940.00
2023-05-22T16:22:04.447Z,100944.31
2023-05-22T16:24:31.928Z,100935.34
2023-05-22T16:26:59.855Z,100942.66
2023-05-22T16:29:27.020Z,100944.88
2023-05-22T16:31:54.343Z,100940.00
2023-05-22T16:34:21.492Z,100944.31
2023-05-22T16:36:48.576Z,100943.16
2023-05-22T16:39:18.468Z,100941.31
2023-05-22T16:41:45.860Z,100936.34
2023-05-22T16:44:13.038Z,100944.88
2023-05-22T16:46:40.368Z,100942.72
2023-05-22T16:49:07.594Z,100942.66
2023-05-22T16:51:34.996Z,100941.31
2023-05-22T16:54:02.169Z,100942.47
2023-05-22T16:56:32.861Z,100945.63
2023-05-22T16:59:00.596Z,100935.66
2023-05-22T17:01:27.882Z,100942.47
2023-05-22T17:03:55.380Z,100943.31
2023-05-22T17:06:22.979Z,100936.50
2023-05-22T17:08:51.080Z,100939.50
2023-05-22T17:11:18.407Z,100945.16
2023-05-22T17:13:47.116Z,100938.69
2023-05-22T17:16:14.302Z,100941.66
2023-05-22T17:18:41.590Z,100948.16
2023-05-22T17:21:11.700Z,100939.34
2023-05-22T17:23:39.057Z,100949.88
2023-05-22T17:26:06.269Z,100953.94
2023-05-22T17:28:33.735Z,100944.84
2023-05-22T17:31:00.871Z,100945.16
2023-05-22T17:33:28.062Z,100947.13
2023-05-22T17:35:55.307Z,100955.88
2023-05-22T17:38:22.672Z,100950.94
2023-05-22T17:40:50.195Z,100961.09
2023-05-22T17:43:19.164Z,100962.56
2023-05-22T17:45:53.021Z,100956.59
2023-05-22T17:48:29.298Z,100961.59
2023-05-22T17:50:56.446Z,100962.41
2023-05-22T17:53:23.571Z,100954.19
2023-05-22T17:55:52.666Z,100961.22
2023-05-22T17:58:21.050Z,100962.78
2023-05-22T18:00:50.896Z,100963.03
2023-05-22T18:03:22.039Z,100974.13
2023-05-22T18:05:50.116Z,100967.88
2023-05-22T18:08:18.525Z,100967.28
2023-05-22T18:10:47.388Z,100965.97
2023-05-22T18:13:14.539Z,100970.22
2023-05-22T18:15:41.732Z,100979.34
2023-05-22T18:18:11.368Z,100979.41
2023-05-22T18:20:40.278Z,100970.25
2023-05-22T18:23:07.930Z,100977.69
2023-05-22T18:25:35.133Z,100974.72
2023-05-22T18:28:02.395Z,100978.16
2023-05-22T18:30:29.700Z,100989.69
2023-05-22T18:32:57.284Z,100973.41
2023-05-22T18:35:24.499Z,100985.41
2023-05-22T18:37:51.808Z,100984.34
2023-05-22T18:40:19.118Z,100983.16
2023-05-22T18:42:46.634Z,100978.66
2023-05-22T18:45:14.438Z,100978.03
2023-05-22T18:47:42.275Z,100986.13
2023-05-22T18:50:10.109Z,100982.69
2023-05-22T18:52:38.030Z,100984.09
2023-05-22T18:55:05.935Z,100981.03
2023-05-22T18:57:33.389Z,100977.47
2023-05-22T19:00:00.666Z,100983.16
2023-05-22T19:02:28.000Z,100985.91
2023-05-22T19:04:55.430Z,100987.69
2023-05-22T19:07:22.604Z,100984.72
2023-05-22T19:09:49.923Z,100983.41
2023-05-22T19:12:17.317Z,100980.44
2023-05-22T19:14:44.858Z,100984.09
2023-05-22T19:17:12.744Z,100982.56
2023-05-22T19:19:40.075Z,100981.50
2023-05-22T19:22:07.392Z,100982.69
2023-05-22T19:24:34.627Z,100978.53
2023-05-22T19:27:02.145Z,100968.09
2023-05-22T19:29:29.605Z,100975.91
2023-05-22T19:31:57.182Z,100970.13
2023-05-22T19:34:24.726Z,100968.47
2023-05-22T19:36:52.303Z,100969.66
2023-05-22T19:39:19.561Z,100964.91
2023-05-22T19:41:47.587Z,100973.22
2023-05-22T19:44:14.770Z,100971.28
2023-05-22T19:46:42.346Z,100980.06
2023-05-22T19:49:09.893Z,100976.75
2023-05-22T19:51:37.489Z,100977.47
2023-05-22T19:54:05.148Z,100984.47
2023-05-22T19:56:32.610Z,100985.53
2023-05-22T19:58:59.929Z,100983.28
2023-05-22T20:01:27.249Z,100978.13
2023-05-22T20:03:56.356Z,100979.06
2023-05-22T20:06:24.911Z,100977.63
2023-05-22T20:08:52.156Z,100984.53
2023-05-22T20:11:19.573Z,100983.31
2023-05-22T20:13:46.928Z,100976.94
2023-05-22T20:16:16.014Z,100981.09
2023-05-22T20:18:44.581Z,100982.28
2023-05-22T20:21:12.077Z,100977.06
2023-05-22T20:23:40.052Z,100982.19
2023-05-22T20:26:07.215Z,100979.13
2023-05-22T20:28:34.761Z,100982.34
2023-05-22T20:31:02.013Z,100985.31
2023-05-22T20:33:29.463Z,100980.44
2023-05-22T20:35:56.673Z,100976.66
2023-05-22T20:38:23.862Z,100978.66
2023-05-22T20:40:52.080Z,100978.28
2023-05-22T20:43:20.292Z,100980.53
2023-05-22T20:45:47.429Z,100986.66
2023-05-22T20:48:14.829Z,100981.28
2023-05-22T20:50:42.382Z,100974.63
2023-05-22T20:53:09.502Z,100977.22
2023-05-22T20:55:37.211Z,100973.16
2023-05-22T20:58:04.465Z,100974.91
2023-05-22T21:00:31.794Z,100974.22
2023-05-22T21:03:01.236Z,100972.16
2023-05-22T21:05:28.413Z,100971.94
2023-05-22T21:07:57.966Z,100967.31
2023-05-22T21:10:25.329Z,100968.22
2023-05-22T21:12:52.532Z,100973.91
2023-05-22T21:15:19.716Z,100971.34
2023-05-22T21:17:48.182Z,100969.47
2023-05-22T21:20:15.286Z,100971.59
2023-05-22T21:22:42.501Z,100972.81
2023-05-22T21:25:09.918Z,100967.75
2023-05-22T21:27:37.180Z,100975.59
2023-05-22T21:30:04.412Z,100971.53
2023-05-22T21:32:34.215Z,100968.50
2023-05-22T21:35:01.652Z,100975.94
2023-05-22T21:37:29.228Z,100964.16
2023-05-22T21:39:56.232Z,100960.47
2023-05-22T21:42:25.946Z,100965.94
2023-05-22T21:44:53.511Z,100964.75
2023-05-22T21:47:20.603Z,100958.69
2023-05-22T21:49:47.608Z,100964.59
2023-05-22T21:52:16.011Z,100960.19
2023-05-22T21:54:43.176Z,100965.34
2023-05-22T21:57:10.435Z,100959.91
2023-05-22T21:59:39.366Z,100967.47
2023-05-22T22:02:06.702Z,100960.81
2023-05-22T22:04:34.220Z,100962.19
2023-05-22T22:07:01.247Z,100957.47
2023-05-22T22:09:28.252Z,100950.75
2023-05-22T22:11:55.350Z,100958.41
2023-05-22T22:14:23.841Z,100951.13
2023-05-22T22:16:54.357Z,100952.03
2023-05-22T22:19:25.439Z,100948.69
2023-05-22T22:21:53.112Z,100949.16
2023-05-22T22:24:21.733Z,100944.56
2023-05-22T22:26:49.395Z,100953.56
2023-05-22T22:29:16.657Z,100948.13
2023-05-22T22:31:45.001Z,100934.28
2023-05-22T22:34:12.149Z,100933.91
2023-05-22T22:36:40.173Z,100937.22
2023-05-22T22:39:07.405Z,100934.97
2023-05-22T22:41:34.941Z,100932.06
2023-05-22T22:44:02.013Z,100931.84
2023-05-22T22:46:29.395Z,100924.66
2023-05-22T22:48:56.669Z,100932.34
2023-05-22T22:51:24.720Z,100921.34
2023-05-22T22:53:51.772Z,100925.13
2023-05-22T22:56:18.920Z,100922.22
2023-05-22T22:58:46.060Z,100917.41
2023-05-22T23:01:13.106Z,100920.72
2023-05-22T23:03:41.436Z,100921.16
2023-05-22T23:06:09.597Z,100914.53
2023-05-22T23:08:36.801Z,100917.69
2023-05-22T23:11:04.366Z,100918.94
2023-05-22T23:13:31.797Z,100917.47
2023-05-22T23:15:58.896Z,100913.19
2023-05-22T23:18:26.061Z,100913.88
2023-05-22T23:20:53.807Z,100912.00
2023-05-22T23:23:20.953Z,100915.19
2023-05-22T23:25:48.070Z,100924.00
2023-05-22T23:28:15.176Z,100923.09
2023-05-22T23:30:42.256Z,100917.22
2023-05-22T23:33:09.330Z,100914.38
2023-05-22T23:35:36.386Z,100915.94
2023-05-22T23:38:03.430Z,100913.06
2023-05-22T23:40:30.470Z,100911.84
2023-05-22T23:42:57.596Z,100919.84
2023-05-22T23:45:24.667Z,100916.13
2023-05-22T23:47:51.991Z,100915.75
2023-05-22T23:50:19.219Z,100914.91
2023-05-22T23:52:48.236Z,100921.50
2023-05-22T23:55:15.784Z,100912.34
2023-05-22T23:57:42.896Z,100916.34
